Time;durP1;ratioP1;P1;durP2;ratioP2;P2;SDS_P1;SDS_P2;PMS_P1;PMS_P2;Temp;Humidity;BMP_temperature;BMP_pressure;BME280_temperature;BME280_humidity;BME280_pressure;Samples;Min_cycle;Max_cycle;Signal;HPM_P1;HPM_P2
2022/10/02 00:02:08;;;;;;;2.28;1.50;;;11.30;99.90;;;;;;4392333;32;20385;-80
2022/10/02 00:04:43;;;;;;;0.40;0.40;;;11.30;99.90;;;;;;4377520;32;20992;-78
2022/10/02 00:07:10;;;;;;;0.57;0.57;;;11.30;99.90;;;;;;4381681;32;20435;-80
2022/10/02 00:09:43;;;;;;;2.72;0.98;;;11.30;99.90;;;;;;4393856;32;20089;-80
2022/10/02 00:12:15;;;;;;;0.20;0.20;;;11.30;99.90;;;;;;4395607;32;20090;-81
2022/10/02 00:14:44;;;;;;;0.32;0.32;;;11.40;99.90;;;;;;4390698;32;20065;-81
2022/10/02 00:17:21;;;;;;;0.30;0.30;;;11.40;99.90;;;;;;4396175;32;20142;-80
2022/10/02 00:19:52;;;;;;;0.30;0.30;;;11.40;99.90;;;;;;4392096;32;20102;-81
2022/10/02 00:22:49;;;;;;;1.87;1.25;;;11.40;99.90;;;;;;4392150;32;20082;-81
2022/10/02 00:25:27;;;;;;;7.87;2.42;;;11.50;99.90;;;;;;4380873;32;20176;-82
2022/10/02 00:28:20;;;;;;;1.67;0.70;;;11.50;99.90;;;;;;4394547;32;20237;-81
2022/10/02 00:31:12;;;;;;;2.83;1.15;;;11.50;99.90;;;;;;4391164;32;20133;-81
2022/10/02 00:33:51;;;;;;;0.40;0.40;;;11.50;99.90;;;;;;4373084;32;20431;-79
2022/10/02 00:36:30;;;;;;;0.25;0.25;;;11.40;99.90;;;;;;4376504;32;20058;-80
2022/10/02 00:39:06;;;;;;;0.52;0.40;;;11.40;99.90;;;;;;4392901;32;20512;-81
2022/10/02 00:42:03;;;;;;;0.62;0.60;;;11.40;99.90;;;;;;4392902;32;20118;-78
2022/10/02 00:45:08;;;;;;;2.47;0.70;;;11.40;99.90;;;;;;4390679;32;20097;-81
2022/10/02 00:47:57;;;;;;;0.40;0.40;;;11.40;99.90;;;;;;4372939;32;20083;-81
2022/10/02 00:50:50;;;;;;;1.12;0.57;;;11.40;99.90;;;;;;4388960;32;20148;-80
2022/10/02 00:53:45;;;;;;;1.40;1.05;;;11.40;99.90;;;;;;4381735;32;20089;-81
2022/10/02 00:56:39;;;;;;;0.40;0.40;;;11.40;99.90;;;;;;4391615;32;20054;-80
2022/10/02 00:59:21;;;;;;;0.30;0.30;;;11.40;99.90;;;;;;4379950;32;20527;-82
2022/10/02 01:01:54;;;;;;;0.30;0.30;;;11.40;99.90;;;;;;4396873;32;20121;-81
2022/10/02 01:04:31;;;;;;;0.20;0.20;;;11.30;99.90;;;;;;4384136;32;20548;-77
2022/10/02 01:06:57;;;;;;;1.87;1.45;;;11.30;99.90;;;;;;4383941;32;20078;-80
2022/10/02 01:09:24;;;;;;;1.55;0.85;;;11.30;99.90;;;;;;4392241;32;20086;-79
2022/10/02 01:11:50;;;;;;;0.37;0.37;;;11.20;99.90;;;;;;4395203;32;20078;-80
2022/10/02 01:14:15;;;;;;;0.52;0.52;;;11.20;99.90;;;;;;4395890;32;20513;-79
2022/10/02 01:16:42;;;;;;;0.70;0.70;;;11.20;99.90;;;;;;4394832;32;20121;-81
2022/10/02 01:19:25;;;;;;;0.52;0.52;;;11.20;99.90;;;;;;4395316;32;20070;-80
2022/10/02 01:22:00;;;;;;;0.60;0.60;;;11.20;99.90;;;;;;4394013;32;20517;-81
2022/10/02 01:24:35;;;;;;;0.30;0.30;;;11.20;99.90;;;;;;4392960;32;20164;-82
2022/10/02 01:27:01;;;;;;;3.72;1.23;;;11.10;99.90;;;;;;4394609;32;20118;-80
2022/10/02 01:29:27;;;;;;;1.05;0.95;;;11.20;99.90;;;;;;4394406;32;20521;-82
2022/10/02 01:31:54;;;;;;;0.30;0.30;;;11.10;99.90;;;;;;4394680;32;20132;-81
2022/10/02 01:34:20;;;;;;;0.40;0.40;;;11.10;99.90;;;;;;4382246;32;20744;-81
2022/10/02 01:36:46;;;;;;;2.00;1.58;;;11.10;99.90;;;;;;4386815;32;20089;-81
2022/10/02 01:39:12;;;;;;;0.30;0.30;;;11.00;99.90;;;;;;4394176;32;20090;-81
2022/10/02 01:41:42;;;;;;;0.25;0.25;;;11.00;99.90;;;;;;4394309;32;20501;-82
2022/10/02 01:44:10;;;;;;;0.50;0.50;;;11.00;99.90;;;;;;4393509;32;20494;-81
2022/10/02 01:46:55;;;;;;;0.30;0.30;;;11.00;99.90;;;;;;4392239;32;20519;-79
2022/10/02 01:49:38;;;;;;;0.30;0.30;;;11.00;99.90;;;;;;4393629;32;20603;-79
2022/10/02 01:52:32;;;;;;;0.40;0.40;;;11.00;99.90;;;;;;4395198;32;20521;-79
2022/10/02 01:55:23;;;;;;;0.22;0.22;;;11.00;99.90;;;;;;4383571;32;20604;-80
2022/10/02 01:58:08;;;;;;;;;;;11.00;99.90;;;;;;4382197;32;20073;-80
2022/10/02 02:01:14;;;;;;;0.30;0.30;;;10.90;99.90;;;;;;4392417;32;20181;-80
2022/10/02 02:04:03;;;;;;;0.37;0.37;;;10.90;99.90;;;;;;4372929;32;20446;-81
2022/10/02 02:06:36;;;;;;;0.57;0.57;;;10.90;99.90;;;;;;4368770;32;20086;-79
2022/10/02 02:09:11;;;;;;;1.10;0.40;;;10.90;99.90;;;;;;4393674;32;20070;-81
2022/10/02 02:11:43;;;;;;;2.12;0.62;;;10.90;99.90;;;;;;4393517;32;20089;-80
2022/10/02 02:14:16;;;;;;;0.30;0.30;;;10.90;99.90;;;;;;4393335;32;20572;-80
2022/10/02 02:16:44;;;;;;;0.40;0.40;;;10.80;99.90;;;;;;4392810;32;20387;-82
2022/10/02 02:19:30;;;;;;;3.37;0.95;;;10.90;99.90;;;;;;4394604;32;20537;-81
2022/10/02 02:22:01;;;;;;;0.30;0.30;;;10.80;99.90;;;;;;4395293;32;20098;-79
2022/10/02 02:24:34;;;;;;;0.40;0.32;;;10.80;99.90;;;;;;4395420;32;20069;-80
2022/10/02 02:27:01;;;;;;;0.60;0.60;;;10.80;99.90;;;;;;4395107;32;20066;-80
2022/10/02 02:29:31;;;;;;;0.30;0.30;;;10.80;99.90;;;;;;4394117;32;20091;-79
2022/10/02 02:31:58;;;;;;;1.00;0.60;;;10.80;99.90;;;;;;4395314;32;20110;-80
2022/10/02 02:34:30;;;;;;;1.10;0.82;;;10.80;99.90;;;;;;4381818;32;20073;-79
2022/10/02 02:37:03;;;;;;;0.50;0.50;;;10.80;99.90;;;;;;4387833;32;20070;-79
2022/10/02 02:39:36;;;;;;;1.55;1.30;;;10.80;99.90;;;;;;4395069;32;20067;-78
2022/10/02 02:42:05;;;;;;;0.40;0.40;;;10.80;99.90;;;;;;4392751;32;20065;-78
2022/10/02 02:44:39;;;;;;;0.80;0.80;;;10.80;99.90;;;;;;4391854;32;20102;-79
2022/10/02 02:47:13;;;;;;;0.30;0.30;;;10.80;99.90;;;;;;4391411;32;20075;-80
2022/10/02 02:49:49;;;;;;;0.50;0.50;;;10.80;99.90;;;;;;4392018;32;20069;-80
2022/10/02 02:52:19;;;;;;;2.08;0.40;;;10.80;99.90;;;;;;4390989;32;20105;-80
2022/10/02 02:54:49;;;;;;;0.65;0.65;;;10.90;99.90;;;;;;4393941;32;20097;-79
2022/10/02 02:57:18;;;;;;;0.50;0.50;;;10.80;99.90;;;;;;4392630;32;20517;-80
2022/10/02 02:59:48;;;;;;;0.32;0.32;;;10.90;99.90;;;;;;4392044;32;20069;-79
2022/10/02 03:02:14;;;;;;;0.30;0.30;;;10.90;99.90;;;;;;4389944;32;20106;-75
2022/10/02 03:04:40;;;;;;;6.80;0.98;;;10.80;99.90;;;;;;4378274;32;20471;-78
2022/10/02 03:07:13;;;;;;;2.25;0.73;;;10.80;99.90;;;;;;4383879;32;20153;-80
2022/10/02 03:09:39;;;;;;;0.30;0.30;;;10.80;99.90;;;;;;4391234;32;20427;-82
2022/10/02 03:12:20;;;;;;;2.78;0.37;;;10.80;99.90;;;;;;4391716;32;20078;-82
2022/10/02 03:15:01;;;;;;;0.40;0.40;;;10.70;99.90;;;;;;4395847;32;20069;-81
2022/10/02 03:17:35;;;;;;;0.52;0.52;;;10.70;99.90;;;;;;4390754;32;20098;-80
2022/10/02 03:20:35;;;;;;;0.28;0.28;;;10.80;99.90;;;;;;4391557;32;20074;-82
2022/10/02 03:23:14;;;;;;;0.45;0.45;;;10.80;99.90;;;;;;4384662;32;20102;-82
2022/10/02 03:25:58;;;;;;;1.35;0.88;;;10.80;99.90;;;;;;4393290;32;20430;-80
2022/10/02 03:28:35;;;;;;;2.12;0.40;;;10.80;99.90;;;;;;4389749;32;20074;-82
2022/10/02 03:31:01;;;;;;;0.80;0.60;;;10.90;99.90;;;;;;4389749;32;20602;-81
2022/10/02 03:33:28;;;;;;;0.40;0.40;;;10.80;99.90;;;;;;4384924;32;20131;-79
2022/10/02 03:35:54;;;;;;;0.50;0.50;;;10.80;99.90;;;;;;4377143;32;20085;-79
2022/10/02 03:38:22;;;;;;;0.30;0.30;;;10.80;99.90;;;;;;4392325;32;20070;-81
2022/10/02 03:40:47;;;;;;;0.35;0.35;;;10.80;99.90;;;;;;4389268;32;20066;-81
2022/10/02 03:43:20;;;;;;;0.40;0.40;;;10.70;99.90;;;;;;4394152;32;20457;-81
2022/10/02 03:45:47;;;;;;;0.82;0.82;;;10.80;99.90;;;;;;4391050;32;20078;-82
2022/10/02 03:48:13;;;;;;;6.68;0.77;;;10.70;99.90;;;;;;4392029;32;21405;-79
2022/10/02 03:50:40;;;;;;;4.12;0.62;;;10.80;99.90;;;;;;4393390;32;20121;-82
2022/10/02 03:53:16;;;;;;;2.72;0.73;;;10.80;99.90;;;;;;4394217;32;20093;-79
2022/10/02 03:55:48;;;;;;;0.73;0.68;;;10.80;99.90;;;;;;4392849;32;20577;-80
2022/10/02 03:58:16;;;;;;;0.45;0.40;;;10.80;99.90;;;;;;4389943;32;20619;-81
2022/10/02 04:01:09;;;;;;;0.60;0.60;;;10.80;99.90;;;;;;4393250;32;20062;-81
2022/10/02 04:03:40;;;;;;;0.30;0.30;;;10.80;99.90;;;;;;4384541;32;20113;-77
2022/10/02 04:06:24;;;;;;;0.45;0.45;;;10.80;99.90;;;;;;4381151;32;20541;-77
2022/10/02 04:08:57;;;;;;;0.75;0.40;;;10.80;99.90;;;;;;4392819;32;20093;-82
2022/10/02 04:11:32;;;;;;;0.37;0.37;;;10.80;99.90;;;;;;4392733;32;21474;-80
2022/10/02 04:14:08;;;;;;;0.28;0.28;;;10.90;99.90;;;;;;4391837;32;20066;-80
2022/10/02 04:16:39;;;;;;;0.37;0.37;;;10.90;99.90;;;;;;4391616;32;20487;-80
2022/10/02 04:19:21;;;;;;;0.30;0.30;;;10.90;99.90;;;;;;4392060;32;20124;-81
2022/10/02 04:21:58;;;;;;;0.40;0.40;;;10.90;99.90;;;;;;4380096;32;20070;-81
2022/10/02 04:24:37;;;;;;;0.30;0.30;;;11.00;99.90;;;;;;4391568;32;20557;-81
2022/10/02 04:27:14;;;;;;;0.50;0.50;;;11.00;99.90;;;;;;4392094;32;20070;-80
2022/10/02 04:29:49;;;;;;;0.82;0.57;;;11.00;99.90;;;;;;4390777;32;20093;-82
2022/10/02 04:32:21;;;;;;;0.30;0.30;;;11.10;99.90;;;;;;4393713;32;20078;-78
2022/10/02 04:34:47;;;;;;;0.50;0.50;;;11.10;99.90;;;;;;4376726;32;20136;-77
2022/10/02 04:37:31;;;;;;;1.85;0.47;;;11.10;99.90;;;;;;4387212;32;20097;-81
2022/10/02 04:40:25;;;;;;;0.30;0.30;;;11.10;99.90;;;;;;4383293;32;20077;-80
2022/10/02 04:43:08;;;;;;;0.40;0.40;;;11.10;99.90;;;;;;4386544;32;20137;-80
2022/10/02 04:46:07;;;;;;;1.87;0.55;;;11.10;99.90;;;;;;4393004;32;20110;-80
2022/10/02 04:48:58;;;;;;;0.70;0.70;;;11.10;99.90;;;;;;4387699;32;20094;-81
2022/10/02 04:52:04;;;;;;;2.53;1.23;;;11.10;99.90;;;;;;4382857;32;20102;-80
2022/10/02 04:54:44;;;;;;;0.30;0.30;;;11.10;99.90;;;;;;4376363;32;20090;-80
2022/10/02 04:57:37;;;;;;;4.47;0.60;;;11.10;99.90;;;;;;4395172;32;20091;-81
2022/10/02 05:00:13;;;;;;;0.30;0.30;;;11.10;99.90;;;;;;4383990;32;20508;-81
2022/10/02 05:03:19;;;;;;;0.40;0.40;;;11.10;99.90;;;;;;4391303;32;20074;-77
2022/10/02 05:06:06;;;;;;;0.50;0.50;;;11.20;99.90;;;;;;4370844;32;20437;-80
2022/10/02 05:08:57;;;;;;;0.30;0.30;;;11.20;99.90;;;;;;4383368;32;20089;-81
2022/10/02 05:11:41;;;;;;;2.10;0.93;;;11.10;99.90;;;;;;4386368;32;20178;-81
2022/10/02 05:14:09;;;;;;;3.83;1.37;;;11.20;99.90;;;;;;4394412;32;20230;-81
2022/10/02 05:17:06;;;;;;;0.30;0.30;;;11.20;99.90;;;;;;4394035;32;20448;-81
2022/10/02 05:20:11;;;;;;;0.37;0.37;;;11.10;99.90;;;;;;4387573;32;20153;-81
2022/10/02 05:22:45;;;;;;;0.30;0.30;;;11.20;99.90;;;;;;4375744;32;20169;-81
2022/10/02 05:25:21;;;;;;;0.32;0.32;;;11.20;99.90;;;;;;4383738;32;20130;-81
2022/10/02 05:28:11;;;;;;;0.40;0.40;;;11.10;99.90;;;;;;4392080;32;20082;-81
2022/10/02 05:30:47;;;;;;;0.57;0.57;;;11.20;99.90;;;;;;4393229;32;20423;-81
2022/10/02 05:33:31;;;;;;;0.30;0.30;;;11.10;99.90;;;;;;4389319;32;20185;-79
2022/10/02 05:36:09;;;;;;;1.33;0.95;;;11.10;99.90;;;;;;4378835;32;20175;-77
2022/10/02 05:38:50;;;;;;;0.22;0.22;;;11.10;99.90;;;;;;4395108;32;20066;-80
2022/10/02 05:41:35;;;;;;;;;;;11.10;99.90;;;;;;4393840;32;20070;-80
2022/10/02 05:44:15;;;;;;;1.20;0.85;;;11.10;99.90;;;;;;4395848;32;19953;-79
2022/10/02 05:46:51;;;;;;;0.33;0.33;;;11.10;99.90;;;;;;4380387;32;20442;-78
2022/10/02 05:49:22;;;;;;;0.57;0.57;;;11.20;99.90;;;;;;4393458;32;20233;-81
2022/10/02 05:52:14;;;;;;;0.37;0.37;;;11.20;99.90;;;;;;4391553;32;20074;-81
2022/10/02 05:54:55;;;;;;;9.90;2.05;;;11.40;99.90;;;;;;4384243;32;20069;-80
2022/10/02 05:57:47;;;;;;;0.40;0.40;;;11.50;99.90;;;;;;4394517;32;20141;-80
2022/10/02 06:00:24;;;;;;;0.32;0.30;;;11.60;99.90;;;;;;4384645;32;20541;-80
2022/10/02 06:03:13;;;;;;;1.70;1.20;;;11.70;99.90;;;;;;4392533;32;20225;-79
2022/10/02 06:05:46;;;;;;;0.30;0.30;;;11.70;99.90;;;;;;4378385;32;20122;-81
2022/10/02 06:08:16;;;;;;;0.37;0.37;;;11.80;99.90;;;;;;4391439;32;20065;-80
2022/10/02 06:10:47;;;;;;;0.40;0.40;;;11.70;99.90;;;;;;4392984;32;20082;-78
2022/10/02 06:13:36;;;;;;;0.40;0.40;;;11.70;99.90;;;;;;4396869;32;20090;-79
2022/10/02 06:16:10;;;;;;;5.53;2.00;;;11.70;99.90;;;;;;4383013;32;20566;-78
2022/10/02 06:18:38;;;;;;;0.40;0.40;;;11.70;99.90;;;;;;4395824;32;20070;-79
2022/10/02 06:21:09;;;;;;;0.60;0.60;;;11.70;99.90;;;;;;4392798;32;20061;-82
2022/10/02 06:23:42;;;;;;;1.45;0.70;;;11.70;99.90;;;;;;4392312;32;20673;-80
2022/10/02 06:26:21;;;;;;;0.30;0.30;;;11.70;99.90;;;;;;4393707;32;20513;-82
2022/10/02 06:28:52;;;;;;;0.95;0.95;;;11.70;99.90;;;;;;4395434;32;20073;-81
2022/10/02 06:31:44;;;;;;;0.30;0.30;;;11.60;99.90;;;;;;4391901;32;20223;-82
2022/10/02 06:34:12;;;;;;;3.83;0.88;;;11.70;99.90;;;;;;4369590;32;20622;-80
2022/10/02 06:36:59;;;;;;;0.30;0.30;;;11.70;99.90;;;;;;4380144;32;20078;-82
2022/10/02 06:39:45;;;;;;;0.30;0.30;;;11.70;99.90;;;;;;4392815;32;20097;-80
2022/10/02 06:42:37;;;;;;;0.45;0.45;;;11.70;99.90;;;;;;4382225;32;20197;-81
2022/10/02 06:45:22;;;;;;;0.40;0.40;;;11.80;99.90;;;;;;4386964;32;20572;-79
2022/10/02 06:48:00;;;;;;;0.30;0.30;;;11.70;99.90;;;;;;4381278;32;20078;-80
2022/10/02 06:50:50;;;;;;;0.52;0.52;;;11.80;99.90;;;;;;4391100;32;20575;-80
2022/10/02 06:53:49;;;;;;;16.23;0.77;;;11.70;99.90;;;;;;4394646;32;20086;-80
2022/10/02 06:56:31;;;;;;;1.62;0.60;;;11.70;99.90;;;;;;4384381;32;20086;-79
2022/10/02 06:59:18;;;;;;;0.40;0.40;;;11.70;99.90;;;;;;4393902;32;20074;-79
2022/10/02 07:02:22;;;;;;;0.70;0.70;;;11.80;99.90;;;;;;4384955;32;20077;-81
2022/10/02 07:05:28;;;;;;;0.30;0.30;;;11.80;99.90;;;;;;4366002;32;20114;-79
2022/10/02 07:08:09;;;;;;;0.60;0.60;;;11.80;99.90;;;;;;4380721;32;20586;-81
2022/10/02 07:10:50;;;;;;;1.20;1.10;;;11.80;99.90;;;;;;4395693;32;20094;-81
2022/10/02 07:13:56;;;;;;;2.72;1.02;;;11.80;99.90;;;;;;4392294;32;20495;-81
2022/10/02 07:17:04;;;;;;;3.03;1.30;;;11.90;99.90;;;;;;4383541;32;20139;-80
2022/10/02 07:19:47;;;;;;;1.65;1.35;;;12.00;99.90;;;;;;4383994;32;20082;-79
2022/10/02 07:22:32;;;;;;;1.00;0.98;;;12.10;99.90;;;;;;4396306;32;20070;-81
2022/10/02 07:25:17;;;;;;;2.10;0.93;;;12.10;99.90;;;;;;4385314;32;20170;-80
2022/10/02 07:28:05;;;;;;;0.75;0.75;;;12.20;99.90;;;;;;4386660;32;20070;-79
2022/10/02 07:30:56;;;;;;;2.53;0.88;;;12.20;99.90;;;;;;4396441;32;20073;-80
2022/10/02 07:33:37;;;;;;;6.82;0.98;;;12.20;99.90;;;;;;4380713;32;20162;-79
2022/10/02 07:36:10;;;;;;;0.50;0.50;;;12.20;99.90;;;;;;4384384;32;20337;-78
2022/10/02 07:39:00;;;;;;;0.62;0.62;;;12.20;99.90;;;;;;4387176;32;20083;-80
2022/10/02 07:41:34;;;;;;;0.40;0.40;;;12.30;99.90;;;;;;4387122;32;20097;-80
2022/10/02 07:44:32;;;;;;;0.45;0.45;;;12.40;99.90;;;;;;4396156;32;20117;-81
2022/10/02 07:47:23;;;;;;;1.15;1.05;;;12.50;99.90;;;;;;4381906;32;20090;-81
2022/10/02 07:49:53;;;;;;;;;;;12.70;99.90;;;;;;4393533;32;20098;-80
2022/10/02 07:52:58;;;;;;;1.65;0.73;;;12.90;99.90;;;;;;4393807;32;20020;-81
2022/10/02 07:55:25;;;;;;;0.62;0.62;;;13.00;99.90;;;;;;4383551;32;20126;-80
2022/10/02 07:58:18;;;;;;;2.83;1.85;;;13.10;99.90;;;;;;4392688;32;20069;-82
2022/10/02 08:00:49;;;;;;;0.68;0.68;;;13.20;99.90;;;;;;4394100;32;20531;-81
2022/10/02 08:03:19;;;;;;;0.40;0.40;;;13.40;99.90;;;;;;4387195;32;20573;-79
2022/10/02 08:05:49;;;;;;;7.20;1.80;;;13.50;99.90;;;;;;4384911;32;20316;-77
2022/10/02 08:08:23;;;;;;;0.40;0.40;;;13.60;99.90;;;;;;4404098;32;20075;-82
2022/10/02 08:11:14;;;;;;;0.40;0.40;;;13.80;99.90;;;;;;4400984;32;20087;-79
2022/10/02 08:13:47;;;;;;;1.17;0.73;;;13.90;99.90;;;;;;4388991;32;20062;-79
2022/10/02 08:16:15;;;;;;;0.52;0.52;;;14.00;99.90;;;;;;4403163;32;20162;-80
2022/10/02 08:18:47;;;;;;;0.50;0.50;;;14.00;99.90;;;;;;4405847;32;20117;-82
2022/10/02 08:21:24;;;;;;;0.50;0.50;;;14.10;99.90;;;;;;4403808;32;20057;-78
2022/10/02 08:24:03;;;;;;;0.43;0.43;;;14.10;99.90;;;;;;4404822;32;20102;-78
2022/10/02 08:26:35;;;;;;;0.45;0.45;;;14.10;99.90;;;;;;4398564;32;20082;-81
2022/10/02 08:29:23;;;;;;;0.65;0.60;;;14.20;99.90;;;;;;4401634;32;21736;-80
2022/10/02 08:31:51;;;;;;;0.40;0.40;;;14.20;99.90;;;;;;4386678;32;20112;-82
2022/10/02 08:34:20;;;;;;;10.05;0.98;;;14.30;99.90;;;;;;4380136;32;93724;-80
2022/10/02 08:37:03;;;;;;;0.73;0.57;;;14.50;99.90;;;;;;4384878;32;20199;-81
2022/10/02 08:39:57;;;;;;;0.82;0.82;;;14.60;99.90;;;;;;4394353;32;20090;-78
2022/10/02 08:43:05;;;;;;;0.57;0.57;;;14.70;99.90;;;;;;4383803;32;20091;-78
2022/10/02 08:46:01;;;;;;;2.65;1.55;;;14.70;99.90;;;;;;4375869;32;20153;-79
2022/10/02 08:48:39;;;;;;;2.83;1.00;;;14.60;99.90;;;;;;4384852;32;20118;-80
2022/10/02 08:51:34;;;;;;;3.03;0.80;;;14.60;99.90;;;;;;4381044;32;20278;-79
2022/10/02 08:54:16;;;;;;;0.77;0.77;;;14.60;99.90;;;;;;4390981;32;21322;-79
2022/10/02 08:56:49;;;;;;;0.40;0.40;;;14.60;99.90;;;;;;4390402;32;20562;-78
2022/10/02 08:59:43;;;;;;;2.25;0.98;;;14.70;99.90;;;;;;4389278;32;20097;-81
2022/10/02 09:02:43;;;;;;;0.52;0.52;;;14.70;99.90;;;;;;4380571;32;20082;-80
2022/10/02 09:05:29;;;;;;;1.20;1.15;;;14.80;99.90;;;;;;4380935;32;20122;-76
2022/10/02 09:08:36;;;;;;;0.30;0.30;;;14.80;99.90;;;;;;4380479;32;20078;-79
2022/10/02 09:11:29;;;;;;;2.85;0.80;;;14.90;99.90;;;;;;4390801;32;20144;-83
2022/10/02 09:14:35;;;;;;;0.30;0.30;;;14.90;99.90;;;;;;4382484;32;20089;-79
2022/10/02 09:17:20;;;;;;;1.85;0.70;;;15.00;99.90;;;;;;4385757;32;20073;-78
2022/10/02 09:20:10;;;;;;;1.50;0.77;;;15.00;99.90;;;;;;4382223;32;20115;-78
2022/10/02 09:22:51;;;;;;;0.60;0.60;;;14.90;99.90;;;;;;4393304;32;20137;-82
2022/10/02 09:25:27;;;;;;;2.20;1.23;;;15.00;99.90;;;;;;4394518;32;20117;-80
2022/10/02 09:28:21;;;;;;;2.72;0.80;;;15.00;99.90;;;;;;4396220;32;20086;-79
2022/10/02 09:31:04;;;;;;;0.75;0.75;;;15.20;99.90;;;;;;4384171;32;20077;-78
2022/10/02 09:33:58;;;;;;;0.40;0.40;;;15.30;99.90;;;;;;4389214;32;20070;-79
2022/10/02 09:36:56;;;;;;;8.43;0.65;;;15.30;99.90;;;;;;4376935;32;20511;-80
2022/10/02 09:40:01;;;;;;;2.53;1.00;;;15.20;99.90;;;;;;4387208;32;20154;-80
2022/10/02 09:42:50;;;;;;;0.60;0.60;;;15.10;99.90;;;;;;4377793;32;20074;-81
2022/10/02 09:45:52;;;;;;;0.40;0.40;;;15.00;99.90;;;;;;4398195;32;20093;-81
2022/10/02 09:48:52;;;;;;;0.40;0.40;;;15.00;99.90;;;;;;4392758;32;20163;-80
2022/10/02 09:51:43;;;;;;;5.32;1.95;;;15.10;99.90;;;;;;4387319;32;20423;-80
2022/10/02 09:54:35;;;;;;;3.08;1.25;;;15.20;99.90;;;;;;4393411;32;20106;-79
2022/10/02 09:57:34;;;;;;;1.65;1.27;;;15.40;99.90;;;;;;4393941;32;20484;-79
2022/10/02 10:00:12;;;;;;;0.47;0.47;;;15.60;99.90;;;;;;4385301;32;20086;-78
2022/10/02 10:02:55;;;;;;;0.57;0.57;;;15.80;99.90;;;;;;4392004;32;20102;-76
2022/10/02 10:06:00;;;;;;;0.37;0.37;;;16.00;99.90;;;;;;4381505;32;20085;-80
2022/10/02 10:08:36;;;;;;;0.50;0.50;;;15.90;99.90;;;;;;4376974;32;20062;-81
2022/10/02 10:11:29;;;;;;;0.80;0.40;;;15.90;99.90;;;;;;4394313;32;20576;-81
2022/10/02 10:14:33;;;;;;;9.85;0.93;;;15.90;99.90;;;;;;4393006;32;20225;-80
2022/10/02 10:17:04;;;;;;;0.50;0.50;;;15.80;99.90;;;;;;4384151;32;21053;-81
2022/10/02 10:19:51;;;;;;;0.65;0.65;;;15.60;99.90;;;;;;4396034;32;20098;-80
2022/10/02 10:22:26;;;;;;;1.70;1.10;;;15.40;99.90;;;;;;4385511;32;20071;-80
2022/10/02 10:25:09;;;;;;;0.62;0.62;;;15.00;99.90;;;;;;4393215;32;20114;-79
2022/10/02 10:28:00;;;;;;;0.50;0.50;;;14.70;99.90;;;;;;4392761;32;20473;-80
2022/10/02 10:30:46;;;;;;;;;;;14.40;99.90;;;;;;4383983;32;20427;-79
2022/10/02 10:33:52;;;;;;;0.50;0.50;;;14.30;99.90;;;;;;4387325;32;20421;-75
2022/10/02 10:38:44;;;;;;;0.60;0.60;;;14.10;99.90;;;;;;4362346;32;20079;-80
2022/10/02 10:39:58;;;;;;;0.45;0.45;;;14.00;99.90;;;;;;4399048;32;20109;-79
2022/10/02 10:42:39;;;;;;;5.93;0.82;;;14.00;99.90;;;;;;4382711;32;20058;-79
2022/10/02 10:45:26;;;;;;;0.57;0.57;;;14.00;99.90;;;;;;4392123;32;20063;-80
2022/10/02 10:48:14;;;;;;;7.80;2.67;;;14.30;99.90;;;;;;4383094;32;20091;-78
2022/10/02 10:50:59;;;;;;;1.25;0.70;;;14.50;99.90;;;;;;4383073;32;20073;-80
2022/10/02 10:53:40;;;;;;;16.48;1.15;;;14.60;99.90;;;;;;4393565;32;20078;-79
2022/10/02 10:56:35;;;;;;;0.70;0.70;;;14.70;99.90;;;;;;4392689;32;20460;-78
2022/10/02 10:59:34;;;;;;;0.40;0.40;;;14.90;99.90;;;;;;4393965;32;20091;-78
2022/10/02 11:02:34;;;;;;;0.40;0.40;;;15.00;99.90;;;;;;4385775;32;20093;-79
2022/10/02 11:05:28;;;;;;;0.30;0.30;;;15.00;99.90;;;;;;4374171;32;20208;-78
2022/10/02 11:08:08;;;;;;;2.40;0.55;;;15.00;99.90;;;;;;4380658;32;20078;-81
2022/10/02 11:11:06;;;;;;;1.17;0.50;;;15.10;99.90;;;;;;4381839;32;20105;-80
2022/10/02 11:13:45;;;;;;;0.80;0.80;;;15.20;99.90;;;;;;4391064;32;20082;-81
2022/10/02 11:16:42;;;;;;;2.35;0.88;;;15.10;99.90;;;;;;4397859;32;20089;-79
2022/10/02 11:19:36;;;;;;;0.40;0.40;;;15.00;99.90;;;;;;4394647;32;20145;-77
2022/10/02 11:22:13;;;;;;;0.40;0.40;;;14.80;99.90;;;;;;4385292;32;20139;-82
2022/10/02 11:25:09;;;;;;;0.40;0.40;;;14.60;99.90;;;;;;4393039;32;20392;-80
2022/10/02 11:28:03;;;;;;;0.60;0.60;;;14.40;99.90;;;;;;4393262;32;20089;-78
2022/10/02 11:30:56;;;;;;;9.13;1.20;;;14.20;99.90;;;;;;4383280;32;20122;-81
2022/10/02 11:33:52;;;;;;;1.27;0.68;;;14.30;99.90;;;;;;4374624;32;20581;-78
2022/10/02 11:36:45;;;;;;;4.62;0.77;;;14.40;99.90;;;;;;4364343;32;20606;-77
2022/10/02 11:39:25;;;;;;;0.40;0.40;;;14.20;99.90;;;;;;4381468;32;20086;-81
2022/10/02 11:42:16;;;;;;;0.40;0.40;;;13.90;99.90;;;;;;4391096;32;20307;-80
2022/10/02 11:44:53;;;;;;;0.43;0.43;;;13.60;99.90;;;;;;4391407;32;20121;-79
2022/10/02 11:47:22;;;;;;;0.50;0.50;;;13.50;99.90;;;;;;4390604;32;20090;-79
2022/10/02 11:50:04;;;;;;;0.35;0.35;;;13.50;99.90;;;;;;4389822;32;20985;-79
2022/10/02 11:52:51;;;;;;;0.57;0.55;;;13.40;99.90;;;;;;4392073;32;20438;-80
2022/10/02 11:55:39;;;;;;;0.37;0.37;;;13.50;99.90;;;;;;4390875;32;20186;-80
2022/10/02 11:58:25;;;;;;;0.30;0.30;;;13.60;99.90;;;;;;4392412;32;20144;-78
2022/10/02 12:01:07;;;;;;;0.50;0.50;;;14.30;99.90;;;;;;4391167;32;20133;-78
2022/10/02 12:03:43;;;;;;;0.70;0.70;;;15.00;99.90;;;;;;4383363;32;20078;-79
2022/10/02 12:06:35;;;;;;;0.40;0.40;;;15.40;99.90;;;;;;4380375;32;20130;-78
2022/10/02 12:09:24;;;;;;;0.60;0.60;;;16.00;99.90;;;;;;4384131;32;20079;-78
2022/10/02 12:12:06;;;;;;;0.40;0.30;;;16.70;99.90;;;;;;4391769;32;20141;-79
2022/10/02 12:14:41;;;;;;;0.68;0.68;;;17.30;99.90;;;;;;4377111;32;20423;-80
2022/10/02 12:17:41;;;;;;;0.93;0.88;;;17.70;99.90;;;;;;4392422;32;20061;-81
2022/10/02 12:27:13;;;;;;;0.30;0.30;;;18.50;99.90;;;;;;4392496;32;19958;-79
2022/10/02 12:29:42;;;;;;;0.60;0.60;;;19.00;99.90;;;;;;4372369;32;20141;-79
2022/10/02 12:32:49;;;;;;;0.30;0.30;;;19.30;99.90;;;;;;4395308;32;20078;-80
2022/10/02 12:35:40;;;;;;;2.62;0.55;;;19.70;99.90;;;;;;4373251;32;20082;-77
2022/10/02 12:38:32;;;;;;;0.73;0.73;;;19.90;99.90;;;;;;4378177;32;20069;-79
2022/10/02 12:41:26;;;;;;;7.22;0.47;;;20.10;99.90;;;;;;4388192;32;20573;-78
2022/10/02 12:44:11;;;;;;;1.45;0.77;;;20.60;99.90;;;;;;4382053;32;20078;-79
2022/10/02 12:47:13;;;;;;;0.25;0.25;;;20.60;99.90;;;;;;4391725;32;20082;-80
2022/10/02 12:50:02;;;;;;;0.28;0.28;;;20.10;99.90;;;;;;4381430;32;20150;-80
2022/10/02 12:52:54;;;;;;;0.30;0.30;;;19.30;99.90;;;;;;4390867;32;20069;-79
2022/10/02 12:56:00;;;;;;;1.98;0.90;;;18.60;99.90;;;;;;4391198;32;20069;-77
2022/10/02 12:58:37;;;;;;;0.45;0.43;;;17.80;99.90;;;;;;4382207;32;20173;-80
2022/10/02 13:01:43;;;;;;;0.70;0.70;;;17.50;99.90;;;;;;4393840;32;20081;-81
2022/10/02 13:04:19;;;;;;;0.30;0.30;;;17.10;99.90;;;;;;4373337;32;20085;-78
2022/10/02 13:07:15;;;;;;;2.28;0.98;;;17.00;99.90;;;;;;4384724;32;20065;-81
2022/10/02 13:10:16;;;;;;;3.08;0.57;;;16.80;99.90;;;;;;4385044;32;20112;-81
2022/10/02 13:13:06;;;;;;;0.45;0.43;;;16.40;99.90;;;;;;4383776;32;20082;-80
2022/10/02 13:15:58;;;;;;;0.55;0.55;;;16.30;99.90;;;;;;4392367;32;20090;-82
2022/10/02 13:18:42;;;;;;;0.40;0.40;;;16.30;99.90;;;;;;4385598;32;20494;-81
2022/10/02 13:21:36;;;;;;;0.73;0.73;;;16.20;99.90;;;;;;4392569;32;20094;-78
2022/10/02 13:24:29;;;;;;;3.62;1.40;;;16.30;99.90;;;;;;4394779;32;20110;-82
2022/10/02 13:27:09;;;;;;;0.50;0.50;;;16.40;99.90;;;;;;4383711;32;20078;-80
2022/10/02 13:29:50;;;;;;;1.20;0.77;;;16.60;99.90;;;;;;4393530;32;20140;-83
2022/10/02 13:32:37;;;;;;;;;;;16.80;99.90;;;;;;4394073;32;20085;-78
2022/10/02 13:35:24;;;;;;;0.60;0.50;;;16.90;99.90;;;;;;4382775;32;19960;-77
2022/10/02 13:38:05;;;;;;;0.32;0.32;;;17.10;99.90;;;;;;4389277;32;20071;-81
2022/10/02 13:40:57;;;;;;;0.50;0.50;;;17.20;99.90;;;;;;4391671;32;20148;-77
2022/10/02 13:43:41;;;;;;;0.85;0.70;;;17.50;99.90;;;;;;4384855;32;20145;-80
2022/10/02 13:46:28;;;;;;;0.40;0.40;;;17.40;99.90;;;;;;4393890;32;20081;-81
2022/10/02 13:49:34;;;;;;;0.90;0.57;;;17.10;99.90;;;;;;4386115;32;20075;-80
2022/10/02 13:52:12;;;;;;;0.60;0.60;;;16.90;99.90;;;;;;4384985;32;20078;-79
2022/10/02 13:55:03;;;;;;;0.30;0.30;;;16.90;99.90;;;;;;4394298;32;20110;-80
2022/10/02 13:57:53;;;;;;;4.47;0.47;;;16.90;99.90;;;;;;4383728;32;20122;-81
2022/10/02 14:00:58;;;;;;;0.73;0.50;;;16.70;99.90;;;;;;4392824;32;20102;-80
2022/10/02 14:04:00;;;;;;;0.30;0.30;;;16.50;99.90;;;;;;4387895;32;20241;-76
2022/10/02 14:06:37;;;;;;;0.50;0.50;;;16.40;99.90;;;;;;4367385;32;20607;-80
2022/10/02 14:09:33;;;;;;;0.50;0.50;;;16.40;99.90;;;;;;4394309;32;20074;-80
2022/10/02 14:12:26;;;;;;;0.32;0.32;;;16.30;99.90;;;;;;4392309;32;20478;-79
2022/10/02 14:15:25;;;;;;;0.37;0.37;;;16.30;99.90;;;;;;4385196;32;20113;-80
2022/10/02 14:18:18;;;;;;;0.40;0.40;;;16.20;99.90;;;;;;4381845;32;20559;-81